Date,TemperatureHighF,TemperatureAvgF,TemperatureLowF,DewpointHighF,DewpointAvgF,DewpointLowF,HumidityHigh,HumidityAvg,HumidityLow,PressureMaxIn,PressureMinIn,WindSpeedMaxMPH,WindSpeedAvgMPH,GustSpeedMaxMPH,PrecipitationSumIn
2013-11-1,70.0,65.4,58.5,67.7,63.6,58.2,99,94,80,29.88,29.67,22,7,22,0.41
2013-11-2,71.6,58.1,45.7,61.1,50.4,37.5,99,80,33,29.98,29.71,17,4,17,0.02
2013-11-3,65.8,50.8,38.5,44.5,37.8,28.1,99,67,25,30.32,29.97,14,3,14,0.01
2013-11-4,63.7,47.8,35.4,42.5,34.4,24.9,99,66,24,30.50,30.32,18,3,18,0.00
2013-11-5,59.0,47.2,34.3,51.4,40.3,32.3,99,78,56,30.54,30.40,12,3,12,0.00
2013-11-6,77.9,59.3,50.4,55.3,52.0,49.7,99,80,40,30.40,30.10,12,3,12,0.00
2013-11-7,74.5,55.5,43.5,63.3,46.8,31.6,99,77,36,30.13,29.94,21,4,21,0.00
2013-11-8,64.8,47.9,34.7,37.0,24.2,2.5,85,47,10,30.30,30.12,15,3,15,0.00
2013-11-9,60.6,47.0,30.4,35.6,29.3,19.4,96,56,21,30.35,30.18,15,3,15,0.00
2013-11-10,76.6,57.2,39.7,42.9,31.0,16.9,90,44,11,30.21,30.09,14,4,14,0.00
2013-11-11,66.9,50.4,34.3,34.1,24.8,11.3,77,42,12,30.33,30.12,15,2,15,0.00
2013-11-12,68.2,46.1,29.3,39.7,30.5,14.7,99,59,16,30.43,30.03,23,6,23,0.05
2013-11-13,53.8,36.1,23.9,23.9,15.0,-2.4,83,48,10,30.52,30.42,12,3,12,0.00
2013-11-14,61.9,42.8,27.1,23.7,15.7,2.0,83,41,10,30.44,30.30,14,3,14,0.00
2013-11-15,61.2,48.3,35.1,49.2,33.6,19.3,99,60,26,30.32,30.17,9,2,9,0.11
2013-11-16,70.7,56.2,48.0,59.3,54.0,47.8,99,93,64,30.25,30.17,9,2,9,0.01
2013-11-17,70.7,60.9,53.4,66.1,59.3,53.2,99,95,75,30.20,29.88,13,2,13,0.13
2013-11-18,78.4,66.6,52.9,68.5,46.7,18.5,99,58,14,29.99,29.82,17,6,17,0.01
2013-11-19,60.1,48.8,39.0,31.9,24.2,14.4,63,40,17,30.25,29.99,19,4,19,0.00
2013-11-20,56.8,46.3,35.4,34.3,30.6,26.8,77,55,37,30.42,30.23,21,6,21,0.00
2013-11-21,59.4,50.2,44.6,45.9,41.0,33.2,78,71,60,30.46,30.34,16,3,16,0.00
2013-11-22,66.0,57.4,50.0,60.9,54.2,45.0,99,89,78,30.38,30.09,16,4,16,0.00
2013-11-23,61.5,55.5,41.9,59.5,42.7,5.5,99,68,18,30.20,30.04,20,4,20,0.00
2013-11-24,45.9,35.3,25.3,22.1,5.3,-12.0,52,32,10,30.48,30.19,17,4,17,0.00
2013-11-25,47.1,34.4,21.2,21.7,5.4,-9.7,75,35,10,30.52,30.31,11,2,11,0.00
2013-11-26,45.1,37.6,31.8,44.9,35.4,22.2,99,93,55,30.31,29.58,21,4,21,2.99
2013-11-27,45.9,39.0,27.3,45.6,33.3,16.8,99,82,48,30.17,29.51,21,6,21,0.24
2013-11-28,53.2,35.6,20.7,25.8,18.8,11.2,93,55,19,30.43,30.17,10,2,11,0.00
2013-11-29,56.8,40.1,26.2,33.0,23.1,10.4,95,57,16,30.56,30.42,15,3,15,0.00
2013-11-30,51.1,38.5,28.0,27.5,23.9,17.7,86,58,28,30.60,30.33,15,4,15,0.00